createdAt,value
2019-04-25T00:01:55.201Z,98617.38
2019-04-25T00:08:01.438Z,98614.41
2019-04-25T00:14:07.005Z,98616.65
2019-04-25T00:20:13.463Z,98599.52
2019-04-25T00:26:25.576Z,98617.00
2019-04-25T00:32:31.587Z,98639.14
2019-04-25T00:38:36.298Z,98636.69
2019-04-25T00:44:42.832Z,98631.11
2019-04-25T00:50:47.985Z,98630.52
2019-04-25T00:56:53.788Z,98620.20
2019-04-25T01:03:01.846Z,98621.95
2019-04-25T01:09:10.023Z,98616.81
2019-04-25T01:15:15.591Z,98620.80
2019-04-25T01:21:20.207Z,98637.24
2019-04-25T01:27:24.919Z,98641.23
2019-04-25T01:33:29.763Z,98631.20
2019-04-25T01:39:36.097Z,98647.91
2019-04-25T01:45:41.299Z,98652.42
2019-04-25T01:51:45.826Z,98648.16
2019-04-25T01:57:50.934Z,98644.25
2019-04-25T02:03:55.763Z,98637.93
2019-04-25T02:10:00.343Z,98626.09
2019-04-25T02:16:06.666Z,98627.20
2019-04-25T02:22:11.281Z,98634.72
2019-04-25T02:28:15.984Z,98626.48
2019-04-25T02:34:20.517Z,98625.80
2019-04-25T02:40:25.278Z,98638.06
2019-04-25T02:46:37.464Z,98644.05
2019-04-25T02:52:44.402Z,98663.72
2019-04-25T02:58:49.969Z,98680.14
2019-04-25T03:04:54.822Z,98684.56
2019-04-25T03:10:59.842Z,98683.03
2019-04-25T03:17:06.920Z,98686.00
2019-04-25T03:23:14.515Z,98686.94
2019-04-25T03:29:19.409Z,98697.96
2019-04-25T03:35:23.971Z,98695.67
2019-04-25T03:41:28.590Z,98694.35
2019-04-25T03:47:33.308Z,98704.44
2019-04-25T03:53:38.116Z,98707.81
2019-04-25T03:59:43.789Z,98716.67
2019-04-25T04:05:48.536Z,98724.25
2019-04-25T04:11:53.452Z,98718.57
2019-04-25T04:18:02.286Z,98722.67
2019-04-25T04:24:08.546Z,98738.79
2019-04-25T04:30:14.469Z,98744.57
2019-04-25T04:36:19.509Z,98756.17
2019-04-25T04:42:24.069Z,98766.30
2019-04-25T04:48:28.667Z,98772.46
2019-04-25T04:54:34.448Z,98777.94
2019-04-25T05:00:39.187Z,98788.46
2019-04-25T05:06:51.072Z,98800.64
2019-04-25T05:12:55.610Z,98801.65
2019-04-25T05:19:00.175Z,98799.14
2019-04-25T05:25:06.628Z,98810.33
2019-04-25T05:31:15.408Z,98819.69
2019-04-25T05:37:19.669Z,98828.77
2019-04-25T05:43:25.922Z,98840.23
2019-04-25T05:49:30.555Z,98844.02
2019-04-25T05:55:35.141Z,98834.03
2019-04-25T06:01:39.796Z,98849.17
2019-04-25T06:07:44.307Z,98837.21
2019-04-25T06:13:50.516Z,98850.28
2019-04-25T06:19:56.800Z,98842.39
2019-04-25T06:26:17.046Z,98842.27
2019-04-25T06:32:08.611Z,98856.45
2019-04-25T06:38:13.556Z,98865.72
2019-04-25T06:44:31.415Z,98874.17
2019-04-25T06:50:36.001Z,98868.55
2019-04-25T06:56:40.546Z,98860.60
2019-04-25T07:02:45.246Z,98854.36
2019-04-25T07:08:49.795Z,98856.86
2019-04-25T07:14:54.365Z,98862.03
2019-04-25T07:20:58.919Z,98861.02
2019-04-25T07:27:15.426Z,98864.38
2019-04-25T07:33:23.322Z,98861.55
2019-04-25T07:39:27.978Z,98868.07
2019-04-25T07:45:34.676Z,98873.77
2019-04-25T07:51:38.869Z,98867.59
2019-04-25T07:57:44.255Z,98855.75
2019-04-25T08:03:49.177Z,98849.05
2019-04-25T08:09:54.181Z,98839.64
2019-04-25T08:16:00.630Z,98850.75
2019-04-25T08:28:05.351Z,98845.41
2019-04-25T08:34:09.961Z,98859.08
2019-04-25T08:40:15.329Z,98863.16
2019-04-25T08:46:20.014Z,98866.94
2019-04-25T08:52:24.652Z,98872.66
2019-04-25T08:58:36.859Z,98873.16
2019-04-25T09:04:44.604Z,98870.85
2019-04-25T09:10:49.219Z,98866.44
2019-04-25T09:16:53.762Z,98873.03
2019-04-25T09:22:58.314Z,98872.86
2019-04-25T09:29:16.306Z,98867.30
2019-04-25T09:35:09.807Z,98868.34
2019-04-25T09:41:15.322Z,98860.20
2019-04-25T09:47:20.224Z,98856.30
2019-04-25T09:53:25.974Z,98848.77
2019-04-25T09:59:30.645Z,98842.28
2019-04-25T10:05:36.835Z,98848.11
2019-04-25T10:11:42.152Z,98838.06
2019-04-25T10:17:47.985Z,98823.05
2019-04-25T10:23:53.479Z,98835.28
2019-04-25T10:29:58.206Z,98839.61
2019-04-25T10:36:04.205Z,98823.02
2019-04-25T10:42:09.031Z,98824.73
2019-04-25T10:48:13.764Z,98825.98
2019-04-25T10:54:18.370Z,98825.02
2019-04-25T11:00:29.141Z,98816.16
2019-04-25T11:06:33.947Z,98798.97
2019-04-25T11:12:38.551Z,98800.56
2019-04-25T11:18:45.000Z,98796.27
2019-04-25T11:24:49.555Z,98772.73
2019-04-25T11:30:55.526Z,98779.28
2019-04-25T11:37:00.611Z,98786.25
2019-04-25T11:43:05.588Z,98782.32
2019-04-25T11:49:10.874Z,98783.33
2019-04-25T11:55:16.665Z,98776.32
2019-04-25T12:01:21.318Z,98783.58
2019-04-25T12:07:26.036Z,98770.35
2019-04-25T12:13:30.676Z,98766.55
2019-04-25T12:19:37.938Z,98764.35
2019-04-25T12:25:41.503Z,98747.92
2019-04-25T12:31:46.818Z,98738.14
2019-04-25T12:37:53.715Z,98736.77
2019-04-25T12:44:15.954Z,98715.34
2019-04-25T12:50:21.242Z,98708.12
2019-04-25T12:56:25.798Z,98724.26
2019-04-25T13:02:30.369Z,98704.70
2019-04-25T13:08:35.000Z,98692.73
2019-04-25T13:14:39.547Z,98698.88
2019-04-25T13:20:44.106Z,98698.08
2019-04-25T13:27:03.603Z,98687.80
2019-04-25T13:33:26.131Z,98687.94
2019-04-25T13:39:31.868Z,98680.19
2019-04-25T13:45:36.411Z,98671.48
2019-04-25T13:51:40.967Z,98659.05
2019-04-25T13:57:45.500Z,98656.75
2019-04-25T14:03:50.132Z,98655.30
2019-04-25T14:09:54.750Z,98640.16
2019-04-25T14:16:03.871Z,98634.41
2019-04-25T14:22:08.662Z,98625.91
2019-04-25T14:28:14.124Z,98621.91
2019-04-25T14:34:18.988Z,98613.22
2019-04-25T14:40:25.726Z,98602.52
2019-04-25T14:46:30.031Z,98592.57
2019-04-25T14:52:35.587Z,98593.13
2019-04-25T14:58:42.018Z,98582.01
2019-04-25T15:04:46.662Z,98574.83
2019-04-25T15:10:51.287Z,98570.52
2019-04-25T15:16:55.837Z,98566.98
2019-04-25T15:23:00.503Z,98561.34
2019-04-25T15:29:06.149Z,98549.23
2019-04-25T15:35:12.455Z,98544.77
2019-04-25T15:41:19.653Z,98527.07
2019-04-25T15:47:26.453Z,98531.75
2019-04-25T15:53:31.101Z,98515.41
2019-04-25T15:59:35.785Z,98520.78
2019-04-25T16:05:40.486Z,98513.58
2019-04-25T16:11:45.042Z,98505.72
2019-04-25T16:17:49.962Z,98503.25
2019-04-25T16:23:54.531Z,98498.66
2019-04-25T16:29:59.085Z,98496.29
2019-04-25T16:36:03.904Z,98482.64
2019-04-25T16:42:08.795Z,98485.31
2019-04-25T16:48:14.186Z,98477.95
2019-04-25T16:54:18.811Z,98473.84
2019-04-25T17:00:25.255Z,98470.39
2019-04-25T17:06:30.514Z,98470.25
2019-04-25T17:12:36.514Z,98467.16
2019-04-25T17:18:42.825Z,98462.73
2019-04-25T17:24:47.381Z,98452.63
2019-04-25T17:30:59.338Z,98451.91
2019-04-25T17:37:08.759Z,98443.78
2019-04-25T17:43:13.320Z,98445.50
2019-04-25T17:49:17.957Z,98447.47
2019-04-25T17:55:22.511Z,98459.45
2019-04-25T18:01:27.196Z,98459.76
2019-04-25T18:07:31.747Z,98452.95
2019-04-25T18:13:38.824Z,98448.62
2019-04-25T18:19:50.097Z,98447.11
2019-04-25T18:25:58.984Z,98433.73
2019-04-25T18:32:03.703Z,98423.81
2019-04-25T18:38:26.315Z,98420.67
2019-04-25T18:44:30.949Z,98418.81
2019-04-25T18:50:36.218Z,98423.95
2019-04-25T18:56:49.709Z,98429.89
2019-04-25T19:03:22.211Z,98430.80
2019-04-25T19:09:18.794Z,98437.09
2019-04-25T19:15:23.352Z,98429.99
2019-04-25T19:21:27.914Z,98441.72
2019-04-25T19:27:32.602Z,98442.87
2019-04-25T19:33:39.265Z,98439.63
2019-04-25T19:39:52.024Z,98438.45
2019-04-25T19:45:56.645Z,98440.65
2019-04-25T19:52:01.196Z,98441.59
2019-04-25T19:58:06.354Z,98441.39
2019-04-25T20:04:12.628Z,98440.91
2019-04-25T20:10:34.886Z,98448.53
2019-04-25T20:16:45.654Z,98444.73
2019-04-25T20:22:50.650Z,98443.35
2019-04-25T20:28:55.433Z,98439.30
2019-04-25T20:35:00.101Z,98440.89
2019-04-25T20:41:04.707Z,98443.33
2019-04-25T20:47:09.360Z,98444.14
2019-04-25T20:53:13.927Z,98444.98
2019-04-25T20:59:18.477Z,98440.84
2019-04-25T21:05:23.132Z,98448.77
2019-04-25T21:11:27.701Z,98444.95
2019-04-25T21:17:32.219Z,98441.86
2019-04-25T21:23:36.842Z,98442.77
2019-04-25T21:29:41.392Z,98436.81
2019-04-25T21:35:46.221Z,98433.59
2019-04-25T21:41:51.433Z,98433.55
2019-04-25T21:47:57.079Z,98432.78
2019-04-25T21:54:03.717Z,98432.50
2019-04-25T22:00:15.353Z,98430.86
2019-04-25T22:06:20.326Z,98428.16
2019-04-25T22:12:24.941Z,98431.37
2019-04-25T22:18:29.712Z,98421.64
2019-04-25T22:24:34.270Z,98419.48
2019-04-25T22:30:40.397Z,98423.83
2019-04-25T22:36:45.031Z,98432.46
2019-04-25T22:42:49.652Z,98487.30
2019-04-25T22:48:54.271Z,98494.22
2019-04-25T22:54:59.873Z,98484.58
2019-04-25T23:01:07.291Z,98504.36
2019-04-25T23:07:12.353Z,98538.59
2019-04-25T23:13:16.923Z,98537.53
2019-04-25T23:19:21.528Z,98543.23
2019-04-25T23:25:28.116Z,98563.81
2019-04-25T23:31:40.333Z,98567.13
2019-04-25T23:37:45.429Z,98573.30
2019-04-25T23:43:49.993Z,98587.97
2019-04-25T23:49:54.589Z,98584.03
2019-04-25T23:55:59.555Z,98566.88
